Current Weather

Zinder

Zinder, Niger (DRZR)

Report from: Monday, May 23, 2022 8:00 AM WAT
Current time: Monday, May 23, 2022 9:09 AM WAT

Nearby weather
Weather history
Weather forecast

Temperature32.0°C (89.6°F)
Heat index30.0°C (85.9°F)
Dew point6.0°C (42.8°F)
Winds 4 kts (2.1 m/s, 4.6 mph) South-Southwest (200°)
Visibility5 mi. (8 km)
Altimeter29.94 in.Hg (1014 mB)
Relative humidity20 %
Density altitude2,055 ft. (626 m)
Flight conditions Marginal Visual Meteorological Conditions
Raw dataDRZR 230700Z 20004KT 8000 NSC 32/06 Q1014
An error has occurred. This application may no longer respond until reloaded. Reload 🗙